CheckWX is a tool to help pilots better visualize weather data.  It is not intended as a substitute for an official pre-flight weather briefing.

21:32:28 UTC

KBYI METAR
Burley Municipal Airport
Burley, Idaho, USA
Current

39 mins ago

KBYI 252053Z AUTO 23006KT 10SM CLR 22/04 A3009 RMK AO2 SLP165 T02170039 58017
Observed
May-25 @ 20:53 UTC
Wind
  • 230° at 6 KTS
Visibility
Flight Rules
VFR
Cloud Levels
  • Clear skies
Temperature
22°C / 72°F
Dewpoint
C / 39°F
Humidity
31%
Altimeter
30.09" Hg
Pressure
1018.92 hPa
Previous

2 hours ago

KBYI 251953Z AUTO 29007KT 10SM CLR 21/02 A3012 RMK AO2 SLP174 T02110022
Observed
May-25 @ 19:53 UTC
Wind
  • 290° at 7 KTS
Visibility
Flight Rules
VFR
Cloud Levels
  • Clear skies
Temperature
21°C / 70°F
Dewpoint
C / 36°F
Humidity
29%
Altimeter
30.12" Hg
Pressure
1020.02 hPa
Previous

3 hours ago

KBYI 251853Z AUTO 10SM CLR 19/02 A3013 RMK AO2 SLP180 T01940022
Observed
May-25 @ 18:53 UTC
Visibility
Flight Rules
VFR
Cloud Levels
  • Clear skies
Temperature
19°C / 66°F
Dewpoint
C / 36°F
Humidity
32%
Altimeter
30.13" Hg
Pressure
1020.32 hPa